Time;durP1;ratioP1;P1;durP2;ratioP2;P2;SDS_P1;SDS_P2;PMS_P1;PMS_P2;Temp;Humidity;BMP_temperature;BMP_pressure;BME280_temperature;BME280_humidity;BME280_pressure;Samples;Min_cycle;Max_cycle;Signal;HPM_P1;HPM_P2
2023/12/16 00:00:45;;;;;;;4.82;3.10;;;;;;;4.11;88.24;102830.56;4935220;29;20139;-86
2023/12/16 00:03:12;;;;;;;8.20;2.95;;;;;;;4.05;88.15;102820.75;4930934;29;20119;-86
2023/12/16 00:05:39;;;;;;;5.72;3.25;;;;;;;4.06;88.06;102817.34;4916927;29;20594;-87
2023/12/16 00:08:06;;;;;;;4.75;2.88;;;;;;;4.03;87.91;102809.41;4934487;29;20050;-86
2023/12/16 00:10:32;;;;;;;4.78;2.42;;;;;;;4.02;88.01;102819.72;4935774;29;20052;-86
2023/12/16 00:13:00;;;;;;;5.22;2.45;;;;;;;3.94;87.43;102824.50;4917789;29;20436;-87
2023/12/16 00:15:27;;;;;;;4.85;2.80;;;;;;;4.00;88.14;102817.91;4918082;29;20055;-86
2023/12/16 00:17:53;;;;;;;7.00;2.92;;;;;;;3.98;88.10;102822.16;4934963;29;20106;-86
2023/12/16 00:20:20;;;;;;;6.55;3.30;;;;;;;3.88;87.81;102819.94;4934231;29;20071;-86
2023/12/16 00:22:47;;;;;;;5.25;2.90;;;;;;;3.85;87.80;102822.34;4918519;29;20086;-88
2023/12/16 00:25:14;;;;;;;4.47;2.30;;;;;;;3.82;87.34;102823.09;4932897;29;20142;-88
2023/12/16 00:27:41;;;;;;;5.45;2.95;;;;;;;3.74;87.45;102823.53;4929633;29;20110;-87
2023/12/16 00:30:08;;;;;;;4.85;2.90;;;;;;;3.63;88.10;102820.34;4932145;29;20052;-87
2023/12/16 00:32:37;;;;;;;4.72;2.67;;;;;;;3.61;87.82;102827.19;4946842;28;20142;-87
2023/12/16 00:35:07;;;;;;;5.10;3.38;;;;;;;3.61;87.83;102827.19;4933805;29;20051;-86
2023/12/16 00:37:34;;;;;;;5.75;3.03;;;;;;;3.64;88.80;102822.16;4918846;29;20052;-87
2023/12/16 00:40:03;;;;;;;5.07;2.88;;;;;;;3.59;88.86;102824.53;4930652;29;20058;-86
2023/12/16 00:42:30;;;;;;;4.25;2.30;;;;;;;3.46;88.52;102838.56;4919052;29;20055;-87
2023/12/16 00:44:57;;;;;;;5.22;2.97;;;;;;;3.55;88.77;102842.44;4929274;29;20055;-86
2023/12/16 00:47:25;;;;;;;5.30;3.38;;;;;;;3.61;89.21;102838.47;4932820;29;20050;-87
2023/12/16 00:49:52;;;;;;;4.90;2.95;;;;;;;3.62;88.92;102839.34;4934681;29;20062;-88
2023/12/16 00:52:19;;;;;;;6.00;3.30;;;;;;;3.58;89.51;102842.63;4936888;29;20151;-89
2023/12/16 00:54:46;;;;;;;5.07;2.53;;;;;;;3.51;88.69;102840.50;4933841;29;20051;-86
2023/12/16 00:57:13;;;;;;;6.30;2.95;;;;;;;3.56;88.34;102839.03;4932970;29;20048;-86
2023/12/16 00:59:40;;;;;;;4.65;2.45;;;;;;;3.47;87.91;102845.50;4918580;29;20443;-88
2023/12/16 01:02:07;;;;;;;7.82;3.10;;;;;;;3.38;88.70;102845.03;4921830;29;20083;-87
2023/12/16 01:04:34;;;;;;;7.55;3.80;;;;;;;3.38;88.96;102849.34;4936475;29;20052;-87
2023/12/16 01:07:02;;;;;;;7.53;3.65;;;;;;;3.42;89.68;102851.31;4915487;29;20139;-87
2023/12/16 01:09:29;;;;;;;5.55;3.60;;;;;;;3.34;89.35;102848.28;4935346;29;20154;-86
2023/12/16 01:11:56;;;;;;;6.82;3.50;;;;;;;3.45;90.35;102847.16;4935699;29;20117;-87
2023/12/16 01:14:23;;;;;;;7.60;3.83;;;;;;;3.47;90.38;102848.09;4933001;29;20091;-87
2023/12/16 01:16:49;;;;;;;7.22;3.00;;;;;;;3.45;89.98;102844.56;4931381;29;20051;-86
2023/12/16 01:19:16;;;;;;;8.32;3.60;;;;;;;3.50;90.08;102843.91;4932568;29;20052;-87
2023/12/16 01:21:43;;;;;;;7.78;3.35;;;;;;;3.35;90.25;102844.88;4931917;29;20044;-86
2023/12/16 01:24:10;;;;;;;7.15;3.53;;;;;;;3.39;89.69;102841.66;4931114;29;20047;-86
2023/12/16 01:26:37;;;;;;;5.65;3.38;;;;;;;3.45;90.25;102844.56;4936399;29;20123;-86
2023/12/16 01:29:04;;;;;;;6.35;3.20;;;;;;;3.44;90.10;102839.28;4915825;29;20055;-86
2023/12/16 01:31:31;;;;;;;8.85;3.92;;;;;;;3.54;90.22;102840.66;4933533;29;20059;-86
2023/12/16 01:33:58;;;;;;;7.07;3.25;;;;;;;3.53;89.97;102841.47;4934552;29;20071;-86
2023/12/16 01:36:25;;;;;;;8.70;3.95;;;;;;;3.44;89.99;102839.28;4936602;29;20052;-87
2023/12/16 01:38:52;;;;;;;5.97;3.65;;;;;;;3.47;89.99;102839.44;4901061;29;20044;-86
2023/12/16 01:41:19;;;;;;;6.07;3.42;;;;;;;3.44;90.11;102845.34;4931626;29;20067;-87
2023/12/16 01:43:46;;;;;;;5.55;2.75;;;;;;;3.38;89.79;102847.63;4934303;29;20055;-87
2023/12/16 01:46:13;;;;;;;6.63;3.55;;;;;;;3.41;89.81;102850.38;4931891;29;20074;-88
2023/12/16 01:48:41;;;;;;;9.43;3.90;;;;;;;3.28;90.22;102851.44;4915602;29;20062;-86
2023/12/16 01:51:09;;;;;;;8.77;3.78;;;;;;;3.34;90.54;102850.00;4944916;28;20062;-86
2023/12/16 01:53:36;;;;;;;6.80;3.88;;;;;;;3.32;90.36;102855.09;4937597;29;20062;-87
2023/12/16 01:56:04;;;;;;;8.32;3.63;;;;;;;3.35;90.02;102865.66;4929795;29;20507;-88
2023/12/16 01:58:31;;;;;;;6.47;3.33;;;;;;;3.29;90.17;102876.59;4930976;29;20044;-86
2023/12/16 02:00:58;;;;;;;6.97;3.72;;;;;;;3.31;90.20;102877.56;4931271;29;20055;-88
2023/12/16 02:03:27;;;;;;;8.18;3.53;;;;;;;3.29;90.44;102883.50;4935230;29;20091;-87
2023/12/16 02:05:54;;;;;;;5.03;3.15;;;;;;;3.34;89.69;102884.63;4932453;29;20151;-89
2023/12/16 02:08:21;;;;;;;5.90;3.20;;;;;;;3.34;89.54;102884.63;4915713;29;20071;-86
2023/12/16 02:10:47;;;;;;;5.35;2.40;;;;;;;3.37;89.54;102879.59;4917830;29;20055;-86
2023/12/16 02:13:14;;;;;;;5.25;3.25;;;;;;;3.32;90.27;102891.44;4911693;29;20058;-87
2023/12/16 02:15:41;;;;;;;7.00;3.70;;;;;;;3.38;90.54;102889.19;4936441;29;20098;-86
2023/12/16 02:18:08;;;;;;;8.70;4.25;;;;;;;3.36;90.57;102885.63;4936688;29;20079;-87
2023/12/16 02:20:35;;;;;;;7.50;3.90;;;;;;;3.38;90.34;102885.69;4927375;29;20158;-86
2023/12/16 02:23:03;;;;;;;6.47;3.25;;;;;;;3.36;90.01;102876.91;4931950;29;20055;-86
2023/12/16 02:25:29;;;;;;;7.05;3.75;;;;;;;3.35;90.49;102881.22;4918158;29;20064;-86
2023/12/16 02:27:56;;;;;;;8.20;3.75;;;;;;;3.30;90.11;102877.47;4918103;29;20052;-87
2023/12/16 02:30:24;;;;;;;5.93;3.13;;;;;;;3.30;89.60;102888.78;4920486;29;20074;-87
2023/12/16 02:32:55;;;;;;;6.05;2.97;;;;;;;3.27;90.27;102888.59;4919314;29;20086;-87
2023/12/16 02:35:22;;;;;;;8.57;3.80;;;;;;;3.38;90.56;102883.97;4937267;29;20044;-89
2023/12/16 02:37:49;;;;;;;7.15;3.75;;;;;;;3.37;90.56;102897.75;4932938;29;20043;-87
2023/12/16 02:40:16;;;;;;;8.88;3.95;;;;;;;3.40;90.55;102894.44;4932588;29;20070;-91
2023/12/16 02:42:43;;;;;;;7.78;3.35;;;;;;;3.37;90.18;102900.34;4938544;29;20066;-86
2023/12/16 02:45:09;;;;;;;8.90;4.05;;;;;;;3.42;90.40;102893.72;4939556;29;20051;-87
2023/12/16 02:47:36;;;;;;;6.15;3.15;;;;;;;3.37;89.98;102902.94;4937045;29;20087;-87
2023/12/16 02:50:07;;;;;;;6.57;3.30;;;;;;;3.40;90.16;102904.81;4933458;29;20128;-86
2023/12/16 02:52:34;;;;;;;6.68;3.30;;;;;;;3.39;90.09;102914.34;4934408;29;20055;-87
2023/12/16 02:55:01;;;;;;;7.97;3.50;;;;;;;3.42;90.19;102911.00;4933849;29;20127;-87
2023/12/16 02:57:28;;;;;;;6.78;3.67;;;;;;;3.46;90.31;102916.44;4942340;29;20047;-87
2023/12/16 02:59:56;;;;;;;5.45;3.22;;;;;;;3.38;89.73;102922.03;4937195;29;20517;-86
2023/12/16 03:02:23;;;;;;;8.30;3.92;;;;;;;3.39;90.37;102923.81;4940481;29;20111;-87
2023/12/16 03:04:50;;;;;;;8.30;3.95;;;;;;;3.42;90.46;102917.09;4941971;29;20159;-86
2023/12/16 03:07:17;;;;;;;6.43;3.40;;;;;;;3.39;90.75;102919.53;4940471;29;20558;-87
2023/12/16 03:09:44;;;;;;;5.72;3.20;;;;;;;3.39;90.49;102927.31;4935838;29;20112;-86
2023/12/16 03:12:11;;;;;;;6.60;3.22;;;;;;;3.36;89.94;102928.81;4918857;29;20079;-87
2023/12/16 03:14:41;;;;;;;6.18;3.25;;;;;;;3.37;90.07;102921.13;4939326;29;20146;-86
2023/12/16 03:17:08;;;;;;;9.07;3.50;;;;;;;3.42;90.29;102924.00;4921284;29;20065;-86
2023/12/16 03:19:35;;;;;;;7.28;3.58;;;;;;;3.40;90.80;102916.09;4927156;29;20062;-86
2023/12/16 03:22:03;;;;;;;8.32;3.63;;;;;;;3.39;90.04;102922.13;4935341;29;20055;-86
2023/12/16 03:24:30;;;;;;;9.55;4.30;;;;;;;3.42;90.93;102919.69;4937098;29;20059;-88
2023/12/16 03:26:57;;;;;;;7.55;4.18;;;;;;;3.42;90.67;102919.69;4901436;29;20055;-86
2023/12/16 03:29:24;;;;;;;7.20;3.45;;;;;;;3.40;90.25;102921.28;4920919;29;20067;-86
2023/12/16 03:31:51;;;;;;;12.07;3.88;;;;;;;3.39;90.56;102914.34;4934979;29;20044;-86
2023/12/16 03:34:18;;;;;;;6.65;3.35;;;;;;;3.32;90.18;102912.22;4938860;29;20083;-86
2023/12/16 03:36:45;;;;;;;5.45;3.70;;;;;;;3.34;90.70;102907.97;4940192;29;20047;-86
2023/12/16 03:39:12;;;;;;;8.88;4.20;;;;;;;3.28;90.56;102905.06;4940602;28;20062;-86
2023/12/16 03:41:39;;;;;;;10.25;4.00;;;;;;;3.24;89.75;102900.50;4935096;29;20477;-87
2023/12/16 03:44:06;;;;;;;6.00;3.00;;;;;;;3.21;89.36;102890.84;4941610;29;20055;-87
2023/12/16 03:46:33;;;;;;;5.20;3.00;;;;;;;3.21;89.10;102897.75;4923224;29;20052;-87
2023/12/16 03:49:00;;;;;;;7.47;4.30;;;;;;;3.11;89.84;102894.66;4917658;29;20051;-86
2023/12/16 03:51:27;;;;;;;6.93;3.00;;;;;;;3.17;89.98;102895.78;4936026;29;20115;-86
2023/12/16 03:53:54;;;;;;;7.50;3.40;;;;;;;3.21;89.45;102892.56;4942919;29;20094;-86
2023/12/16 03:56:21;;;;;;;6.22;2.88;;;;;;;3.08;89.33;102907.44;4930976;29;20154;-86
2023/12/16 03:58:48;;;;;;;8.13;4.13;;;;;;;2.90;90.30;102906.44;4938957;29;20044;-86
2023/12/16 04:01:15;;;;;;;7.43;3.88;;;;;;;2.95;90.47;102903.31;4932368;29;20377;-86
2023/12/16 04:03:42;;;;;;;5.63;3.42;;;;;;;2.92;90.63;102907.41;4931491;29;20111;-85
2023/12/16 04:06:12;;;;;;;4.85;3.05;;;;;;;2.85;90.50;102902.69;4936085;29;20055;-86
2023/12/16 04:08:40;;;;;;;8.35;3.88;;;;;;;2.83;90.61;102904.31;4932777;29;20061;-87
2023/12/16 04:11:07;;;;;;;8.75;4.03;;;;;;;2.78;90.51;102912.72;4934848;29;20047;-86
2023/12/16 04:13:34;;;;;;;7.20;3.33;;;;;;;2.93;89.93;102911.81;4932949;29;20051;-86
2023/12/16 04:16:03;;;;;;;6.38;3.88;;;;;;;2.94;89.70;102908.38;4935705;29;20110;-86
2023/12/16 04:18:31;;;;;;;7.18;3.58;;;;;;;2.91;89.57;102918.59;4933943;29;20056;-86
2023/12/16 04:20:59;;;;;;;5.50;3.08;;;;;;;2.86;89.07;102905.38;4933870;29;20059;-86
2023/12/16 04:23:26;;;;;;;6.35;3.70;;;;;;;2.90;89.49;102906.44;4933273;29;20055;-87
2023/12/16 04:25:53;;;;;;;7.45;3.88;;;;;;;2.86;89.42;102907.09;4932672;29;20063;-88
2023/12/16 04:28:20;;;;;;;9.45;4.40;;;;;;;2.82;90.01;102908.59;4934469;29;20098;-87
2023/12/16 04:30:47;;;;;;;5.20;3.25;;;;;;;2.89;89.12;102910.72;4917200;29;20103;-86
2023/12/16 04:33:14;;;;;;;5.70;3.63;;;;;;;2.68;89.11;102905.25;4931929;29;20379;-86
2023/12/16 04:35:41;;;;;;;6.25;3.55;;;;;;;2.74;88.89;102910.75;4933821;29;20051;-86
2023/12/16 04:38:09;;;;;;;6.25;3.65;;;;;;;2.68;89.38;102905.25;4925774;29;20047;-86
2023/12/16 04:40:36;;;;;;;6.85;3.45;;;;;;;2.63;89.47;102906.66;4926838;29;20131;-86
2023/12/16 04:43:03;;;;;;;6.65;3.25;;;;;;;2.56;89.55;102908.03;4934947;29;20419;-86
2023/12/16 04:45:30;;;;;;;6.15;3.67;;;;;;;2.54;89.96;102911.34;4933720;29;20043;-86
2023/12/16 04:47:56;;;;;;;6.80;3.13;;;;;;;2.62;89.54;102910.06;4933537;29;20069;-86
2023/12/16 04:50:23;;;;;;;5.75;3.65;;;;;;;2.48;88.88;102905.78;4933056;29;20051;-87
2023/12/16 04:52:50;;;;;;;6.30;3.20;;;;;;;2.52;88.91;102897.38;4935533;28;20056;-86
2023/12/16 04:55:17;;;;;;;6.72;3.28;;;;;;;2.48;88.60;102903.19;4935226;29;20062;-88
2023/12/16 04:57:45;;;;;;;7.15;3.10;;;;;;;2.31;89.33;102907.41;4931344;29;20130;-86
2023/12/16 05:00:13;;;;;;;7.05;3.40;;;;;;;2.35;89.83;102910.25;4934935;29;20051;-86
2023/12/16 05:02:40;;;;;;;6.05;2.67;;;;;;;2.37;89.25;102910.34;4935866;29;20050;-87
2023/12/16 05:05:07;;;;;;;5.45;3.40;;;;;;;2.33;89.82;102911.88;4935649;29;20057;-86
2023/12/16 05:07:34;;;;;;;7.72;3.67;;;;;;;2.28;89.92;102913.31;4933404;29;20054;-86
2023/12/16 05:10:01;;;;;;;5.57;2.72;;;;;;;2.28;89.50;102913.31;4934368;29;20111;-87
2023/12/16 05:12:29;;;;;;;6.90;3.03;;;;;;;2.31;89.17;102910.88;4933205;29;20052;-86
2023/12/16 05:15:06;;;;;;;5.90;3.15;;;;;;;2.23;88.94;102909.53;4917938;29;20166;-85
2023/12/16 05:17:33;;;;;;;6.82;2.97;;;;;;;2.25;88.27;102910.53;4939264;29;20060;-86
2023/12/16 05:20:00;;;;;;;5.82;2.67;;;;;;;2.20;87.94;102909.34;4925180;29;20138;-87
2023/12/16 05:22:26;;;;;;;4.60;2.30;;;;;;;2.22;87.41;102908.66;4934725;29;20052;-86
2023/12/16 05:24:53;;;;;;;5.88;2.65;;;;;;;2.26;87.15;102905.44;4932155;29;20055;-86
2023/12/16 05:27:20;;;;;;;5.15;2.20;;;;;;;2.31;86.88;102915.19;4916548;29;20063;-85
2023/12/16 05:29:47;;;;;;;7.13;2.53;;;;;;;2.27;86.85;102919.28;4934486;29;20048;-86
2023/12/16 05:32:14;;;;;;;5.68;2.50;;;;;;;2.34;86.88;102918.84;4932530;29;20490;-87
2023/12/16 05:34:41;;;;;;;4.63;1.98;;;;;;;2.32;86.78;102917.88;4935069;29;20066;-86
2023/12/16 05:37:08;;;;;;;4.70;2.42;;;;;;;2.30;86.13;102911.69;4933473;29;20051;-87
2023/12/16 05:39:34;;;;;;;8.35;2.60;;;;;;;2.31;86.41;102907.41;4932674;29;20055;-87
2023/12/16 05:42:01;;;;;;;6.40;2.53;;;;;;;2.28;86.35;102908.13;4933764;29;20511;-89
2023/12/16 05:44:28;;;;;;;5.60;2.67;;;;;;;2.28;86.45;102918.50;4918410;29;20051;-86
2023/12/16 05:46:55;;;;;;;6.40;2.45;;;;;;;2.31;87.06;102918.66;4933586;29;20048;-86
2023/12/16 05:49:21;;;;;;;5.22;2.67;;;;;;;2.29;87.17;102922.88;4933848;29;20054;-86
2023/12/16 05:51:48;;;;;;;6.57;2.55;;;;;;;2.26;87.51;102925.28;4933767;29;20511;-86
2023/12/16 05:54:16;;;;;;;6.82;2.47;;;;;;;2.22;87.48;102925.91;4932444;28;20051;-86
2023/12/16 05:56:43;;;;;;;6.88;2.58;;;;;;;2.21;87.24;102931.88;4933785;29;20087;-86
2023/12/16 05:59:09;;;;;;;8.27;3.28;;;;;;;2.28;87.23;102934.03;4931991;29;20071;-85
2023/12/16 06:01:36;;;;;;;8.82;2.80;;;;;;;2.27;86.92;102937.41;4936093;29;20051;-85
2023/12/16 06:04:03;;;;;;;7.35;2.78;;;;;;;2.30;86.38;102937.59;4938028;28;20055;-90
2023/12/16 06:06:30;;;;;;;6.13;2.53;;;;;;;2.35;86.20;102941.38;4944888;29;20048;-87
2023/12/16 06:08:57;;;;;;;8.43;2.88;;;;;;;2.39;85.60;102940.75;4919596;29;20060;-87
2023/12/16 06:11:24;;;;;;;5.88;2.80;;;;;;;2.49;84.69;102944.78;4919987;29;20138;-86
2023/12/16 06:13:51;;;;;;;9.65;3.58;;;;;;;2.49;84.01;102946.44;4936957;29;20056;-86
2023/12/16 06:16:18;;;;;;;7.50;2.70;;;;;;;2.44;83.94;102952.25;4920188;29;20047;-88
2023/12/16 06:18:47;;;;;;;5.28;2.20;;;;;;;2.37;84.34;102944.03;4933523;29;20134;-87
2023/12/16 06:21:15;;;;;;;5.10;2.20;;;;;;;2.38;84.30;102944.13;4933534;29;20052;-87
2023/12/16 06:23:42;;;;;;;8.05;2.55;;;;;;;2.46;83.54;102943.69;4936631;29;20051;-87
2023/12/16 06:26:09;;;;;;;7.07;2.45;;;;;;;2.43;83.72;102950.50;4936382;29;20055;-86
2023/12/16 06:28:36;;;;;;;5.50;2.30;;;;;;;2.35;84.20;102946.56;4934758;29;20047;-86
2023/12/16 06:31:03;;;;;;;8.70;2.78;;;;;;;2.39;83.60;102943.34;4915843;29;20134;-87
2023/12/16 06:33:30;;;;;;;6.63;2.65;;;;;;;2.45;82.99;102942.81;4933488;29;20048;-86
2023/12/16 06:35:57;;;;;;;5.65;2.92;;;;;;;2.37;83.52;102944.94;4935624;29;20055;-87
2023/12/16 06:38:24;;;;;;;5.05;2.30;;;;;;;2.35;83.40;102943.97;4933185;29;20052;-86
2023/12/16 06:40:51;;;;;;;6.15;2.20;;;;;;;2.44;82.63;102946.19;4933124;29;20075;-86
2023/12/16 06:43:18;;;;;;;5.50;2.13;;;;;;;2.49;81.97;102946.44;4921564;29;20456;-86
2023/12/16 06:45:45;;;;;;;5.53;1.70;;;;;;;2.46;82.37;102948.88;4932280;29;20480;-88
2023/12/16 06:48:12;;;;;;;8.95;2.08;;;;;;;2.37;83.28;102954.41;4931316;29;20056;-86
2023/12/16 06:50:39;;;;;;;4.45;1.90;;;;;;;2.47;82.04;102961.91;4937767;29;20050;-86
2023/12/16 06:53:06;;;;;;;5.78;1.80;;;;;;;2.46;81.82;102954.94;4919047;29;20055;-86
2023/12/16 06:55:33;;;;;;;5.25;2.20;;;;;;;2.51;81.50;102961.28;4935224;29;20148;-88
2023/12/16 06:58:00;;;;;;;7.22;2.08;;;;;;;2.53;81.24;102967.44;4935561;29;20114;-86
2023/12/16 07:00:27;;;;;;;4.18;1.77;;;;;;;2.56;81.42;102979.72;4919864;29;20058;-86
2023/12/16 07:02:54;;;;;;;7.40;2.20;;;;;;;2.50;81.83;102981.94;4937503;29;20051;-87
2023/12/16 07:05:21;;;;;;;7.28;2.45;;;;;;;2.62;80.79;102977.47;4938087;29;20058;-86
2023/12/16 07:07:49;;;;;;;7.35;2.60;;;;;;;2.61;81.24;102968.81;4932683;29;20055;-85
2023/12/16 07:10:16;;;;;;;4.88;1.95;;;;;;;2.69;80.46;102979.59;4939296;29;20379;-88
2023/12/16 07:12:43;;;;;;;6.07;1.88;;;;;;;2.68;80.42;102985.63;4903720;29;20083;-88
2023/12/16 07:15:10;;;;;;;5.75;2.22;;;;;;;2.65;81.13;102984.53;4932384;29;20059;-90
2023/12/16 07:17:38;;;;;;;8.73;2.25;;;;;;;2.64;80.63;102981.06;4914826;29;20059;-87
2023/12/16 07:20:07;;;;;;;5.07;2.20;;;;;;;2.68;80.68;102983.03;4934403;29;20048;-87
2023/12/16 07:22:34;;;;;;;6.88;1.95;;;;;;;2.62;81.29;102982.66;4947334;28;20054;-87
2023/12/16 07:25:01;;;;;;;6.18;2.10;;;;;;;2.69;80.67;102983.91;4936088;29;20074;-88
2023/12/16 07:27:30;;;;;;;8.98;2.30;;;;;;;2.69;80.32;102989.09;4936592;29;20531;-88
2023/12/16 07:29:57;;;;;;;7.10;2.20;;;;;;;2.66;80.94;102987.22;4918147;29;20134;-87
2023/12/16 07:32:24;;;;;;;7.63;2.60;;;;;;;2.70;81.07;102989.19;4933154;29;20054;-86
2023/12/16 07:34:51;;;;;;;7.03;2.67;;;;;;;2.72;80.40;102990.19;4930706;29;20062;-87
2023/12/16 07:37:18;;;;;;;4.45;2.25;;;;;;;2.69;80.84;102994.28;4929548;29;20055;-86
2023/12/16 07:39:46;;;;;;;6.30;2.40;;;;;;;2.67;81.08;102993.31;4938623;29;20043;-86
2023/12/16 07:42:13;;;;;;;4.10;2.30;;;;;;;2.70;80.83;102991.78;4935166;29;20083;-85
2023/12/16 07:44:40;;;;;;;9.57;2.90;;;;;;;2.82;80.26;102993.31;4934923;29;20127;-86
2023/12/16 07:47:07;;;;;;;6.22;2.22;;;;;;;2.88;79.96;102991.06;4931395;29;20094;-86
2023/12/16 07:49:34;;;;;;;4.47;2.38;;;;;;;2.88;80.09;102986.78;4943455;29;20056;-86
2023/12/16 07:52:01;;;;;;;8.10;2.45;;;;;;;2.89;79.93;102990.25;4934581;29;20062;-86
2023/12/16 07:54:28;;;;;;;5.03;2.55;;;;;;;2.86;80.48;102988.38;4936100;29;20051;-86
2023/12/16 07:56:55;;;;;;;10.38;2.88;;;;;;;2.84;80.54;102992.59;4945001;29;20102;-85
2023/12/16 07:59:22;;;;;;;5.22;2.30;;;;;;;2.82;80.52;102991.59;4947980;29;20054;-85
2023/12/16 08:01:54;;;;;;;8.07;3.53;;;;;;;2.91;80.18;102996.41;4940079;29;20071;-86
2023/12/16 08:04:21;;;;;;;8.68;2.78;;;;;;;2.96;79.74;102987.19;4919910;29;20055;-86
2023/12/16 08:06:47;;;;;;;7.63;2.17;;;;;;;2.98;79.55;102993.34;4934577;29;20098;-86
2023/12/16 08:09:14;;;;;;;4.07;2.22;;;;;;;2.97;79.86;102996.78;4935292;29;20142;-87
2023/12/16 08:11:41;;;;;;;4.03;1.73;;;;;;;3.04;79.60;102993.72;4935432;29;20055;-85
2023/12/16 08:14:08;;;;;;;6.28;1.90;;;;;;;3.06;80.10;102997.28;4932602;29;20054;-85
2023/12/16 08:16:38;;;;;;;6.60;2.28;;;;;;;3.10;79.86;103004.44;4933794;29;20060;-86
2023/12/16 08:19:05;;;;;;;4.70;2.22;;;;;;;3.15;80.06;103009.88;4916121;29;20133;-86
2023/12/16 08:21:33;;;;;;;4.80;2.22;;;;;;;3.19;80.01;103018.75;4931611;29;20079;-86
2023/12/16 08:24:01;;;;;;;3.88;2.03;;;;;;;3.20;80.19;103020.53;4924507;29;20044;-87
2023/12/16 08:26:28;;;;;;;6.50;1.98;;;;;;;3.29;79.46;103026.25;4944257;28;20123;-85
2023/12/16 08:28:55;;;;;;;5.35;2.63;;;;;;;3.36;79.67;103023.19;4945100;29;20051;-85
2023/12/16 08:31:22;;;;;;;5.45;2.38;;;;;;;3.40;79.65;103022.53;4947345;29;20055;-84
2023/12/16 08:33:49;;;;;;;4.28;2.35;;;;;;;3.47;78.95;103023.78;4945619;29;20067;-88
2023/12/16 08:36:16;;;;;;;4.18;2.25;;;;;;;3.56;79.39;103031.19;4937098;29;20515;-86
2023/12/16 08:38:44;;;;;;;4.47;1.92;;;;;;;3.57;79.71;103033.84;4934056;29;21998;-85
2023/12/16 08:41:12;;;;;;;5.72;2.10;;;;;;;3.71;78.72;103034.63;4937995;29;20054;-83
2023/12/16 08:43:39;;;;;;;6.53;2.65;;;;;;;3.75;79.28;103036.59;4947874;29;20542;-83
2023/12/16 08:46:06;;;;;;;10.02;2.80;;;;;;;3.76;79.02;103035.75;4944946;29;20086;-84
2023/12/16 08:48:34;;;;;;;8.68;3.17;;;;;;;3.85;78.42;103045.75;4907857;29;1279795;-83
2023/12/16 08:51:01;;;;;;;8.02;2.67;;;;;;;3.96;78.04;103049.81;4939915;29;20146;-83
2023/12/16 08:53:28;;;;;;;11.30;3.45;;;;;;;4.03;77.79;103051.06;4942798;29;20115;-83
2023/12/16 08:55:55;;;;;;;5.53;2.08;;;;;;;4.04;78.38;103050.25;4939240;29;20050;-90
2023/12/16 08:58:21;;;;;;;4.63;2.83;;;;;;;4.07;78.61;103055.63;4929727;29;20078;-86
2023/12/16 09:00:49;;;;;;;6.93;2.80;;;;;;;4.10;78.42;103057.47;4937252;29;20044;-85
2023/12/16 09:03:16;;;;;;;6.22;2.42;;;;;;;4.24;77.10;103066.00;4943572;29;20055;-83
2023/12/16 09:05:43;;;;;;;6.05;2.63;;;;;;;4.32;77.71;103068.19;4921613;29;20047;-84
2023/12/16 09:08:10;;;;;;;12.13;3.30;;;;;;;4.34;77.82;103068.28;4937072;29;20142;-84
2023/12/16 09:10:37;;;;;;;8.35;3.42;;;;;;;4.33;77.23;103071.69;4923911;29;20075;-84
2023/12/16 09:13:04;;;;;;;8.32;3.00;;;;;;;4.37;77.04;103078.84;4950262;28;20142;-87
2023/12/16 09:15:31;;;;;;;7.38;2.53;;;;;;;4.39;77.20;103079.81;4930789;29;20055;-84
2023/12/16 09:17:58;;;;;;;6.97;2.65;;;;;;;4.50;76.85;103075.16;4919896;29;20055;-85
2023/12/16 09:20:25;;;;;;;4.57;2.47;;;;;;;4.53;77.54;103072.72;4945477;28;20063;-84
2023/12/16 09:22:52;;;;;;;5.15;2.50;;;;;;;4.57;77.72;103077.28;4951746;29;20185;-83
2023/12/16 09:25:18;;;;;;;6.18;2.22;;;;;;;4.63;77.13;103087.09;4943879;29;20075;-87
2023/12/16 09:27:46;;;;;;;12.95;3.08;;;;;;;4.68;76.29;103083.06;4939341;29;20055;-83
2023/12/16 09:30:13;;;;;;;5.75;2.63;;;;;;;4.73;76.23;103086.75;4944478;29;20047;-83
2023/12/16 09:32:44;;;;;;;7.25;2.63;;;;;;;4.82;76.81;103084.66;4940323;29;20133;-86
2023/12/16 09:35:12;;;;;;;3.10;1.98;;;;;;;4.89;75.53;103085.84;4931986;29;20048;-85
2023/12/16 09:37:39;;;;;;;7.38;2.05;;;;;;;4.91;75.61;103084.22;4936093;29;20547;-85
2023/12/16 09:40:07;;;;;;;5.60;2.33;;;;;;;4.96;75.13;103084.44;4938732;29;20074;-85
2023/12/16 09:42:36;;;;;;;7.50;2.30;;;;;;;4.99;75.59;103084.59;4940674;29;20479;-86
2023/12/16 09:45:03;;;;;;;5.50;2.10;;;;;;;5.08;76.13;103082.44;4932124;29;20044;-85
2023/12/16 09:47:31;;;;;;;4.47;2.00;;;;;;;5.17;76.01;103075.09;4931279;29;20062;-87
2023/12/16 09:50:02;;;;;;;4.20;2.00;;;;;;;5.25;75.49;103078.06;4936651;29;20047;-89
2023/12/16 09:52:30;;;;;;;4.72;1.77;;;;;;;5.28;74.89;103073.00;4918329;29;20171;-86
2023/12/16 09:55:00;;;;;;;5.47;1.75;;;;;;;5.34;75.41;103082.84;4935490;29;20146;-85
2023/12/16 09:57:28;;;;;;;5.43;2.00;;;;;;;5.36;75.48;103083.81;4936976;29;20398;-86
2023/12/16 09:59:56;;;;;;;5.60;1.80;;;;;;;5.48;75.80;103076.59;4938488;29;20059;-86
2023/12/16 10:02:26;;;;;;;4.47;2.03;;;;;;;5.49;74.65;103086.19;4919877;29;20071;-88
2023/12/16 10:04:58;;;;;;;4.05;2.25;;;;;;;5.55;75.55;103080.41;4933981;29;20064;-85
2023/12/16 10:07:26;;;;;;;10.00;2.50;;;;;;;5.57;75.40;103089.16;4930344;29;20854;-87
2023/12/16 10:09:53;;;;;;;5.78;1.65;;;;;;;5.63;75.10;103083.34;4934211;29;20350;-88
2023/12/16 10:12:20;;;;;;;12.00;2.88;;;;;;;5.68;75.04;103080.16;4926456;29;20064;-87
2023/12/16 10:14:50;;;;;;;5.18;1.77;;;;;;;5.73;74.83;103068.22;4918173;29;20055;-90
2023/12/16 10:17:18;;;;;;;7.68;2.60;;;;;;;5.83;74.65;103072.16;4912168;29;20055;-87
2023/12/16 10:19:46;;;;;;;3.83;2.17;;;;;;;5.88;74.90;103068.06;4933876;29;20047;-91
2023/12/16 10:22:14;;;;;;;6.32;2.20;;;;;;;6.00;73.67;103064.28;4930323;29;20067;-91
2023/12/16 10:24:41;;;;;;;5.72;2.08;;;;;;;6.05;72.95;103057.53;4928761;29;20050;-89
2023/12/16 10:27:10;;;;;;;8.35;2.42;;;;;;;6.16;74.03;103061.53;4931909;29;20064;-87
2023/12/16 10:29:40;;;;;;;7.25;2.55;;;;;;;6.25;72.13;103053.22;4918437;29;20047;-88
2023/12/16 10:32:26;;;;;;;6.55;1.80;;;;;;;6.26;68.49;103053.28;4935178;29;20048;-90
2023/12/16 10:37:21;;;;;;;4.03;1.80;;;;;;;6.34;67.38;103056.22;4935163;28;20454;-87
2023/12/16 10:39:52;;;;;;;3.80;1.23;;;;;;;6.39;67.90;103053.84;4935006;29;20065;-87
2023/12/16 10:43:11;;;;;;;5.00;2.05;;;;;;;6.39;66.40;103048.63;4954985;28;20047;-87
2023/12/16 10:45:39;;;;;;;3.50;1.23;;;;;;;6.50;65.53;103051.69;4960617;28;20519;-87
2023/12/16 10:48:10;;;;;;;4.50;1.58;;;;;;;6.59;64.28;103052.97;4936835;28;20055;-88
2023/12/16 10:50:44;;;;;;;5.15;1.30;;;;;;;6.64;64.69;103049.69;4950733;28;20051;-87
2023/12/16 10:53:26;;;;;;;2.63;1.17;;;;;;;6.71;64.25;103047.41;4950132;28;20384;-87
2023/12/16 10:55:58;;;;;;;3.22;0.80;;;;;;;6.72;63.27;103049.19;4951656;28;20054;-87
2023/12/16 10:58:28;;;;;;;6.00;1.52;;;;;;;6.72;63.80;103050.88;4949167;28;20055;-88
2023/12/16 11:01:14;;;;;;;4.78;0.90;;;;;;;6.69;63.05;103053.38;4939053;28;20051;-87
2023/12/16 11:03:50;;;;;;;2.63;0.80;;;;;;;6.72;60.79;103048.28;4953516;28;20205;-88
2023/12/16 11:06:51;;;;;;;4.18;1.20;;;;;;;6.77;62.23;103054.59;4953116;28;20054;-87
2023/12/16 11:09:19;;;;;;;2.42;0.95;;;;;;;6.81;62.68;103056.50;4937487;28;20051;-89
2023/12/16 11:11:46;;;;;;;5.43;1.00;;;;;;;6.84;62.35;103051.41;4952032;28;20061;-88
2023/12/16 11:14:14;;;;;;;3.95;1.02;;;;;;;6.81;62.81;103061.72;4937353;28;20103;-88
2023/12/16 11:17:07;;;;;;;5.88;1.05;;;;;;;6.82;61.20;103049.56;4934809;28;20055;-88
2023/12/16 11:19:42;;;;;;;9.65;1.80;;;;;;;6.86;61.13;103051.47;4945093;28;20077;-88
2023/12/16 11:22:11;;;;;;;5.72;0.98;;;;;;;6.88;60.39;103044.59;4930467;28;20048;-87
2023/12/16 11:24:40;;;;;;;4.70;0.90;;;;;;;6.88;61.20;103042.88;4955091;28;20073;-88
2023/12/16 11:27:07;;;;;;;2.13;0.90;;;;;;;6.90;62.15;103038.63;4954450;28;20043;-89
2023/12/16 11:29:34;;;;;;;4.93;0.90;;;;;;;6.97;61.59;103040.66;4947912;28;20063;-87
2023/12/16 11:32:03;;;;;;;2.00;0.80;;;;;;;7.00;62.96;103036.41;4947756;28;20075;-87
2023/12/16 11:34:49;;;;;;;6.15;1.08;;;;;;;7.07;62.34;103035.81;4955097;28;20110;-87
2023/12/16 11:37:42;;;;;;;3.88;0.90;;;;;;;7.03;59.40;103033.91;4954674;28;20046;-87
2023/12/16 11:40:38;;;;;;;3.47;1.00;;;;;;;7.10;61.68;103031.59;4935990;29;20130;-87